Time;durP1;ratioP1;P1;durP2;ratioP2;P2;SDS_P1;SDS_P2;PMS_P1;PMS_P2;Temp;Humidity;BMP_temperature;BMP_pressure;BME280_temperature;BME280_humidity;BME280_pressure;Samples;Min_cycle;Max_cycle;Signal;HPM_P1;HPM_P2
2024/01/24 00:01:54;;;;;;;79.10;39.70;;;;;;;-2.38;100.00;102223.67;109506;1244;70289;-72
2024/01/24 00:04:23;;;;;;;74.10;39.00;;;;;;;-2.35;100.00;102224.35;109640;1243;69176;-72
2024/01/24 00:06:52;;;;;;;74.20;37.60;;;;;;;-2.31;100.00;102225.75;109517;1246;71699;-72
2024/01/24 00:09:21;;;;;;;76.00;37.60;;;;;;;-2.28;100.00;102223.71;109640;1244;60323;-72
2024/01/24 00:11:50;;;;;;;75.90;38.70;;;;;;;-2.16;100.00;102221.72;109654;1243;59462;-72
2024/01/24 00:14:19;;;;;;;68.40;35.70;;;;;;;-2.06;100.00;102221.77;109668;1243;73020;-71
2024/01/24 00:16:47;;;;;;;84.20;40.40;;;;;;;-2.02;100.00;102220.92;109646;1242;71872;-72
2024/01/24 00:19:17;;;;;;;75.40;39.10;;;;;;;-1.98;100.00;102225.20;109645;1243;68815;-71
2024/01/24 00:21:46;;;;;;;81.40;40.70;;;;;;;-1.94;100.00;102226.42;109655;1244;70958;-73
2024/01/24 00:24:15;;;;;;;75.70;39.60;;;;;;;-1.89;100.00;102228.48;109629;1244;59745;-71
2024/01/24 00:26:44;;;;;;;70.60;37.00;;;;;;;-1.85;100.00;102224.23;109647;1243;59521;-70
2024/01/24 00:29:13;;;;;;;73.60;39.00;;;;;;;-1.82;100.00;102223.21;109630;1242;73578;-71
2024/01/24 00:31:42;;;;;;;71.40;39.50;;;;;;;-1.77;100.00;102222.55;109628;1242;72399;-71
2024/01/24 00:34:11;;;;;;;75.50;38.60;;;;;;;-1.78;100.00;102219.80;109417;1243;71169;-70
2024/01/24 00:36:39;;;;;;;73.20;39.50;;;;;;;-1.75;100.00;102215.38;109595;1243;73577;-69
2024/01/24 00:39:09;;;;;;;75.40;39.50;;;;;;;-1.74;100.00;102215.21;109612;1243;61522;-70
2024/01/24 00:41:41;;;;;;;79.90;39.60;;;;;;;-1.74;100.00;102215.21;109637;1243;61066;-71
2024/01/24 00:44:10;;;;;;;78.80;40.40;;;;;;;-1.72;100.00;102210.59;109531;1242;72904;-72
2024/01/24 00:46:39;;;;;;;72.50;38.60;;;;;;;-1.70;100.00;102212.31;109544;1244;69972;-72
2024/01/24 00:49:12;;;;;;;71.50;37.50;;;;;;;-1.70;100.00;102207.02;109637;1242;70431;-70
2024/01/24 00:51:41;;;;;;;74.70;40.40;;;;;;;-1.71;100.00;102204.63;109451;1245;73899;-71
2024/01/24 00:54:10;;;;;;;75.50;38.50;;;;;;;-1.67;100.00;102201.39;109422;1244;60124;-71
2024/01/24 00:56:40;;;;;;;81.90;39.80;;;;;;;-1.56;100.00;102199.52;109462;1244;59462;-71
2024/01/24 00:59:09;;;;;;;68.70;37.10;;;;;;;-1.54;100.00;102197.65;109338;1243;71916;-71
2024/01/24 01:01:38;;;;;;;75.50;37.70;;;;;;;-1.49;100.00;102195.95;109461;1243;72674;-71
2024/01/24 01:04:06;;;;;;;72.90;38.00;;;;;;;-1.51;100.00;102191.33;109466;1242;69817;-71
2024/01/24 01:06:35;;;;;;;77.50;38.10;;;;;;;-1.66;100.00;102193.88;109345;1243;73215;-70
2024/01/24 01:09:04;;;;;;;70.50;36.50;;;;;;;-1.60;100.00;102198.66;109339;1246;60513;-71
2024/01/24 01:11:33;;;;;;;74.40;38.20;;;;;;;-1.56;100.00;102200.04;109571;1243;58670;-71
2024/01/24 01:14:03;;;;;;;74.90;36.90;;;;;;;-1.59;100.00;102203.10;109510;1243;70590;-71
2024/01/24 01:16:32;;;;;;;74.60;40.30;;;;;;;-1.65;100.00;102204.29;109586;1242;71465;-69
2024/01/24 01:19:00;;;;;;;75.20;38.70;;;;;;;-1.76;100.00;102204.42;109604;1243;70705;-70
2024/01/24 01:21:29;;;;;;;77.20;38.90;;;;;;;-1.73;100.00;102201.20;109600;1244;72940;-69
2024/01/24 01:23:58;;;;;;;74.50;38.90;;;;;;;-1.67;100.00;102197.29;109438;1244;60673;-70
2024/01/24 01:26:27;;;;;;;75.40;38.20;;;;;;;-1.65;100.00;102192.85;109471;1243;58726;-70
2024/01/24 01:28:56;;;;;;;73.50;38.30;;;;;;;-1.58;100.00;102187.73;109424;1244;74142;-72
2024/01/24 01:31:24;;;;;;;75.30;37.50;;;;;;;-1.59;100.00;102181.59;109355;1243;72501;-71
2024/01/24 01:33:54;;;;;;;73.00;38.00;;;;;;;-1.67;100.00;102177.64;109454;1244;68517;-72
2024/01/24 01:36:22;;;;;;;67.80;34.80;;;;;;;-1.64;100.00;102176.95;109195;1244;73813;-73
2024/01/24 01:38:51;;;;;;;65.60;34.60;;;;;;;-1.51;100.00;102175.95;109442;1244;59936;-72
2024/01/24 01:41:20;;;;;;;68.30;34.20;;;;;;;-1.43;100.00;102169.46;109437;1242;59611;-72
2024/01/24 01:43:49;;;;;;;72.50;36.40;;;;;;;-1.46;100.00;102170.66;109156;1242;71455;-72
2024/01/24 01:46:18;;;;;;;69.20;34.70;;;;;;;-1.58;100.00;102165.34;109553;1244;72100;-71
2024/01/24 01:48:50;;;;;;;70.40;36.40;;;;;;;-1.51;100.00;102169.29;109494;1243;70058;-72
2024/01/24 01:51:22;;;;;;;71.10;37.20;;;;;;;-1.47;100.00;102168.60;109322;1243;73657;-70
2024/01/24 01:53:51;;;;;;;73.10;37.50;;;;;;;-1.44;100.00;102169.46;109494;1244;60911;-72
2024/01/24 01:56:22;;;;;;;70.90;36.10;;;;;;;-1.47;100.00;102164.33;109511;1244;60772;-71
2024/01/24 01:58:52;;;;;;;71.40;37.50;;;;;;;-1.44;100.00;102163.64;109559;1244;73408;-73
2024/01/24 02:01:21;;;;;;;71.30;37.50;;;;;;;-1.56;100.00;102154.94;109614;1243;72398;-71
2024/01/24 02:03:51;;;;;;;72.60;37.40;;;;;;;-1.61;100.00;102158.50;109386;1243;68096;-72
2024/01/24 02:06:19;;;;;;;75.70;39.40;;;;;;;-1.74;100.00;102160.38;109362;1245;73617;-71
2024/01/24 02:08:49;;;;;;;74.00;38.20;;;;;;;-1.75;100.00;102158.66;109445;1243;61754;-71
2024/01/24 02:11:18;;;;;;;79.80;39.30;;;;;;;-1.71;100.00;102153.72;109369;1242;61108;-72
2024/01/24 02:13:46;;;;;;;79.30;39.80;;;;;;;-1.68;100.00;102156.11;109370;1243;74413;-71
2024/01/24 02:16:15;;;;;;;74.50;37.30;;;;;;;-1.69;100.00;102152.88;109379;1243;70105;-71
2024/01/24 02:18:49;;;;;;;77.60;41.30;;;;;;;-1.74;100.00;102152.17;109335;1243;67933;-71
2024/01/24 02:21:19;;;;;;;76.30;40.60;;;;;;;-1.80;100.00;102149.61;109256;1245;72029;-71
2024/01/24 02:23:48;;;;;;;81.20;40.10;;;;;;;-1.70;100.00;102147.23;109281;1243;62774;-71
2024/01/24 02:26:16;;;;;;;75.60;39.70;;;;;;;-1.63;100.00;102148.77;109396;1243;61777;-72
2024/01/24 02:28:45;;;;;;;76.00;41.20;;;;;;;-1.61;100.00;102149.80;109390;1243;71871;-71
2024/01/24 02:31:14;;;;;;;75.10;39.70;;;;;;;-1.56;100.00;102149.11;109412;1243;69387;-72
2024/01/24 02:33:43;;;;;;;72.50;38.20;;;;;;;-1.62;100.00;102146.73;109411;1242;70185;-71
2024/01/24 02:36:15;;;;;;;73.70;38.50;;;;;;;-1.55;100.00;102148.27;109292;1243;74152;-70
2024/01/24 02:38:44;;;;;;;80.30;39.10;;;;;;;-1.48;100.00;102143.32;109425;1243;62209;-70
2024/01/24 02:41:12;;;;;;;79.80;39.10;;;;;;;-1.47;100.00;102137.16;109433;1242;60552;-72
2024/01/24 02:43:41;;;;;;;75.60;39.80;;;;;;;-1.47;100.00;102136.65;109436;1243;72929;-71
2024/01/24 02:46:10;;;;;;;80.80;40.10;;;;;;;-1.44;100.00;102135.11;109423;1243;70125;-71
2024/01/24 02:48:40;;;;;;;79.50;38.80;;;;;;;-1.48;100.00;102134.95;109501;1243;69903;-70
2024/01/24 02:51:08;;;;;;;72.90;38.80;;;;;;;-1.46;100.00;102142.98;109498;1244;74025;-72
2024/01/24 02:53:39;;;;;;;74.60;38.30;;;;;;;-1.49;100.00;102143.83;109639;1244;59849;-71
2024/01/24 02:56:08;;;;;;;74.30;37.40;;;;;;;-1.45;100.00;102135.98;109407;1246;59527;-71
2024/01/24 02:58:36;;;;;;;75.70;38.60;;;;;;;-1.43;100.00;102134.95;109622;1243;74191;-72
2024/01/24 03:01:06;;;;;;;77.40;38.60;;;;;;;-1.50;100.00;102133.73;109629;1242;70090;-70
2024/01/24 03:03:38;;;;;;;71.00;38.00;;;;;;;-1.55;100.00;102133.40;109640;1244;70488;-70
2024/01/24 03:06:08;;;;;;;72.10;36.90;;;;;;;-1.61;100.00;102133.05;109627;1242;72236;-70
2024/01/24 03:08:58;;;;;;;72.40;35.30;;;;;;;-1.58;100.00;102128.45;109524;1245;61963;-69
2024/01/24 03:11:26;;;;;;;78.40;36.90;;;;;;;-1.58;100.00;102126.40;109531;1243;62051;-70
2024/01/24 03:13:55;;;;;;;71.50;36.60;;;;;;;-1.61;100.00;102127.25;109499;1242;73216;-70
2024/01/24 03:16:24;;;;;;;73.40;37.00;;;;;;;-1.64;100.00;102133.23;109538;1242;70268;-71
2024/01/24 03:18:53;;;;;;;73.40;37.80;;;;;;;-1.70;100.00;102135.10;109391;1242;69020;-70
2024/01/24 03:21:22;;;;;;;74.00;36.70;;;;;;;-1.74;100.00;102137.15;109494;1242;72255;-71
2024/01/24 03:23:51;;;;;;;74.10;36.40;;;;;;;-1.77;100.00;102134.92;109380;1245;59506;-71
2024/01/24 03:26:20;;;;;;;76.00;38.10;;;;;;;-1.81;100.00;102139.86;109638;1242;58638;-71
2024/01/24 03:28:49;;;;;;;67.90;36.00;;;;;;;-1.81;100.00;102141.58;109646;1243;74349;-72
2024/01/24 03:31:17;;;;;;;78.50;37.70;;;;;;;-1.84;100.00;102147.54;109630;1243;69776;-72
2024/01/24 03:33:46;;;;;;;68.30;35.50;;;;;;;-1.89;100.00;102146.85;109615;1243;67659;-71
2024/01/24 03:36:15;;;;;;;75.90;37.50;;;;;;;-1.91;100.00;102145.99;109626;1243;73077;-72
2024/01/24 03:38:44;;;;;;;77.50;37.70;;;;;;;-2.01;100.00;102140.16;109459;1245;61406;-71
2024/01/24 03:41:13;;;;;;;75.50;39.70;;;;;;;-2.03;100.00;102141.19;109511;1243;60410;-70
2024/01/24 03:43:42;;;;;;;80.70;42.30;;;;;;;-2.06;100.00;102151.93;109542;1243;73983;-71
2024/01/24 03:46:11;;;;;;;75.80;39.20;;;;;;;-2.07;100.00;102148.69;109525;1243;72439;-73
2024/01/24 03:48:39;;;;;;;72.80;39.20;;;;;;;-2.05;100.00;102151.59;109657;1243;70813;-72
2024/01/24 03:51:11;;;;;;;73.30;38.20;;;;;;;-2.05;100.00;102148.69;109659;1243;73898;-72
2024/01/24 03:53:40;;;;;;;69.30;36.60;;;;;;;-2.04;100.00;102149.90;109599;1245;59729;-72
2024/01/24 03:56:09;;;;;;;74.20;37.20;;;;;;;-2.03;100.00;102153.48;109663;1242;61016;-71
2024/01/24 03:58:38;;;;;;;75.40;39.20;;;;;;;-2.03;100.00;102155.19;109620;1243;73480;-71
2024/01/24 04:01:06;;;;;;;76.80;38.20;;;;;;;-2.08;100.00;102153.64;109583;1243;70920;-71
2024/01/24 04:03:35;;;;;;;75.30;38.20;;;;;;;-2.09;100.00;102146.29;109587;1243;69055;-71
2024/01/24 04:06:05;;;;;;;70.00;36.10;;;;;;;-2.12;100.00;102143.55;109434;1243;71442;-71
2024/01/24 04:08:34;;;;;;;72.30;36.80;;;;;;;-2.23;100.00;102148.98;109595;1244;62304;-71
2024/01/24 04:11:03;;;;;;;69.50;36.60;;;;;;;-2.30;100.00;102148.45;109694;1242;60886;-71
2024/01/24 04:13:32;;;;;;;79.10;38.20;;;;;;;-2.38;100.00;102148.59;109555;1243;75251;-74
2024/01/24 04:16:01;;;;;;;72.50;37.90;;;;;;;-2.48;100.00;102148.54;109672;1242;73489;-73
2024/01/24 04:18:29;;;;;;;69.20;36.80;;;;;;;-2.60;100.00;102156.67;109671;1243;70545;-70
2024/01/24 04:21:01;;;;;;;69.10;36.40;;;;;;;-2.68;100.00;102149.80;109628;1244;72143;-71
2024/01/24 04:23:30;;;;;;;70.70;36.70;;;;;;;-2.75;100.00;102151.30;109443;1243;59706;-72
2024/01/24 04:25:59;;;;;;;80.80;39.00;;;;;;;-2.80;100.00;102149.40;109653;1243;58642;-72
2024/01/24 04:28:28;;;;;;;74.70;36.60;;;;;;;-2.87;100.00;102146.64;109548;1243;72481;-70
2024/01/24 04:30:56;;;;;;;75.80;39.10;;;;;;;-2.94;100.00;102143.34;109653;1243;71723;-71
2024/01/24 04:33:25;;;;;;;72.10;37.40;;;;;;;-3.03;100.00;102144.14;109688;1243;68544;-71
2024/01/24 04:35:57;;;;;;;72.20;38.40;;;;;;;-3.08;100.00;102148.71;109656;1243;71108;-72
2024/01/24 04:38:25;;;;;;;75.50;37.00;;;;;;;-3.17;100.00;102146.77;109642;1242;61945;-71
2024/01/24 04:40:54;;;;;;;69.40;37.50;;;;;;;-3.20;100.00;102140.78;109671;1242;59819;-72
2024/01/24 04:43:23;;;;;;;75.80;37.40;;;;;;;-3.27;100.00;102142.79;109632;1244;72088;-70
2024/01/24 04:45:52;;;;;;;77.20;36.30;;;;;;;-3.31;100.00;102135.08;109674;1243;72222;-71
2024/01/24 04:48:21;;;;;;;76.60;36.90;;;;;;;-3.36;100.00;102131.98;109691;1243;70874;-70
2024/01/24 04:50:50;;;;;;;76.80;38.50;;;;;;;-3.42;100.00;102130.57;109580;1243;73941;-70
2024/01/24 04:53:20;;;;;;;79.10;40.00;;;;;;;-3.47;100.00;102130.02;109676;1244;60877;-70
2024/01/24 04:55:48;;;;;;;82.40;43.20;;;;;;;-3.52;100.00;102133.39;109680;1243;60898;-70
2024/01/24 04:58:17;;;;;;;84.10;39.40;;;;;;;-3.59;100.00;102132.98;109695;1243;71708;-70
2024/01/24 05:00:47;;;;;;;88.90;43.70;;;;;;;-3.67;100.00;102129.16;109662;1244;70168;-68
2024/01/24 05:03:16;;;;;;;82.30;40.80;;;;;;;-3.71;100.00;102130.67;109579;1246;69382;-70
2024/01/24 05:05:45;;;;;;;81.40;40.90;;;;;;;-3.69;100.00;102124.73;109541;1245;71873;-70
2024/01/24 05:08:16;;;;;;;79.90;40.40;;;;;;;-3.72;100.00;102132.35;109629;1244;61270;-70
2024/01/24 05:10:45;;;;;;;88.80;43.90;;;;;;;-3.76;100.00;102132.65;109479;1243;61560;-69
2024/01/24 05:13:13;;;;;;;100.70;47.10;;;;;;;-3.75;100.00;102136.41;109620;1243;74026;-70
2024/01/24 05:15:42;;;;;;;84.90;41.10;;;;;;;-3.73;100.00;102135.92;109581;1243;71388;-69
2024/01/24 05:18:11;;;;;;;79.10;38.70;;;;;;;-3.75;100.00;102131.14;109602;1244;67148;-70
2024/01/24 05:20:40;;;;;;;81.30;40.90;;;;;;;-3.76;100.00;102127.38;109575;1244;71692;-69
2024/01/24 05:23:09;;;;;;;73.80;37.30;;;;;;;-3.79;100.00;102126.52;109541;1242;61135;-69
2024/01/24 05:25:37;;;;;;;74.50;37.40;;;;;;;-3.84;100.00;102121.67;109516;1243;60431;-70
2024/01/24 05:28:08;;;;;;;80.40;39.40;;;;;;;-3.88;100.00;102116.88;109472;1244;72277;-70
2024/01/24 05:30:37;;;;;;;80.50;38.20;;;;;;;-3.91;100.00;102121.27;109473;1244;71468;-71
2024/01/24 05:33:06;;;;;;;73.60;36.20;;;;;;;-3.96;100.00;102117.66;109252;1243;70134;-70
2024/01/24 05:35:35;;;;;;;73.60;34.30;;;;;;;-3.98;100.00;102122.23;109477;1243;72908;-70
2024/01/24 05:38:04;;;;;;;73.90;35.90;;;;;;;-4.04;100.00;102127.44;109435;1244;60769;-70
2024/01/24 05:40:33;;;;;;;70.50;34.40;;;;;;;-4.07;100.00;102128.60;109466;1244;58851;-70
2024/01/24 05:43:03;;;;;;;74.10;35.40;;;;;;;-4.10;100.00;102126.52;109457;1243;74767;-71
2024/01/24 05:45:32;;;;;;;88.80;39.20;;;;;;;-4.14;100.00;102124.28;109412;1244;70606;-69
2024/01/24 05:48:01;;;;;;;86.40;38.60;;;;;;;-4.17;100.00;102125.27;109407;1243;70429;-70
2024/01/24 05:50:30;;;;;;;83.40;39.30;;;;;;;-4.20;100.00;102121.67;109341;1244;73337;-70
2024/01/24 05:52:58;;;;;;;90.00;41.80;;;;;;;-4.21;100.00;102123.00;109245;1245;62373;-70
2024/01/24 05:55:28;;;;;;;88.10;42.40;;;;;;;-4.22;100.00;102123.52;109170;1247;61962;-70
2024/01/24 05:57:57;;;;;;;77.00;39.40;;;;;;;-4.20;100.00;102121.48;109390;1244;74950;-70
2024/01/24 06:00:25;;;;;;;82.70;41.90;;;;;;;-4.19;100.00;102122.52;109301;1243;72553;-70
2024/01/24 06:02:54;;;;;;;83.60;40.60;;;;;;;-4.17;100.00;102114.89;109444;1244;70769;-70
2024/01/24 06:05:23;;;;;;;80.30;40.30;;;;;;;-4.18;100.00;102110.95;109361;1245;74256;-70
2024/01/24 06:07:52;;;;;;;81.80;40.10;;;;;;;-4.18;100.00;102106.55;109530;1245;60994;-70
2024/01/24 06:10:21;;;;;;;76.60;38.50;;;;;;;-4.18;100.00;102109.77;109493;1245;59451;-70
2024/01/24 06:12:50;;;;;;;77.40;39.10;;;;;;;-4.18;100.00;102105.17;109429;1245;71636;-70
2024/01/24 06:15:19;;;;;;;89.10;48.20;;;;;;;-4.20;100.00;102108.55;109540;1245;68596;-71
2024/01/24 06:17:48;;;;;;;85.80;43.50;;;;;;;-4.18;100.00;102108.08;109534;1245;68646;-70
2024/01/24 06:20:17;;;;;;;80.50;39.70;;;;;;;-4.13;100.00;102103.03;109491;1243;73935;-70
2024/01/24 06:22:46;;;;;;;81.10;40.00;;;;;;;-4.09;100.00;102111.23;109417;1245;61026;-69
2024/01/24 06:25:15;;;;;;;71.20;38.30;;;;;;;-4.04;100.00;102117.25;109526;1244;58811;-69
2024/01/24 06:27:45;;;;;;;75.70;40.50;;;;;;;-3.96;100.00;102118.00;109426;1246;72442;-71
2024/01/24 06:30:14;;;;;;;80.00;41.90;;;;;;;-3.89;100.00;102115.52;109463;1245;71323;-70
2024/01/24 06:32:51;;;;;;;91.80;44.90;;;;;;;-3.85;100.00;102114.70;109549;1245;69106;-70
2024/01/24 06:35:21;;;;;;;81.40;41.70;;;;;;;-3.78;100.00;102120.73;109367;1244;73617;-70
2024/01/24 06:37:51;;;;;;;81.30;40.90;;;;;;;-3.73;100.00;102125.02;109456;1246;62330;-71
2024/01/24 06:40:20;;;;;;;88.50;43.90;;;;;;;-3.67;100.00;102125.27;109399;1245;59653;-71
2024/01/24 06:42:50;;;;;;;82.00;43.70;;;;;;;-3.60;100.00;102129.41;109415;1245;71621;-73
2024/01/24 06:45:19;;;;;;;86.80;42.50;;;;;;;-3.52;100.00;102135.77;109496;1245;71621;-71
2024/01/24 06:47:49;;;;;;;91.50;45.90;;;;;;;-3.42;100.00;102133.30;109398;1243;69641;-72
2024/01/24 06:50:18;;;;;;;90.40;45.20;;;;;;;-3.35;100.00;102132.50;109273;1245;224152;-70
2024/01/24 06:52:47;;;;;;;77.30;41.20;;;;;;;-3.32;100.00;102138.14;109401;1246;60405;-72
2024/01/24 06:55:17;;;;;;;76.70;39.00;;;;;;;-3.31;100.00;102130.31;109500;1245;58856;-70
2024/01/24 06:57:46;;;;;;;74.90;39.20;;;;;;;-3.24;100.00;102129.67;109403;1244;73446;-71
2024/01/24 07:00:16;;;;;;;76.00;38.60;;;;;;;-3.11;100.00;102131.31;109378;1246;70312;-72
2024/01/24 07:02:45;;;;;;;71.20;38.40;;;;;;;-2.96;100.00;102126.64;109469;1245;70478;-71
2024/01/24 07:05:14;;;;;;;70.60;37.90;;;;;;;-2.81;100.00;102129.45;109488;1244;73377;-71
2024/01/24 07:07:42;;;;;;;80.80;38.80;;;;;;;-2.69;100.00;102121.66;109521;1245;62726;-70
2024/01/24 07:10:11;;;;;;;85.20;43.70;;;;;;;-2.53;100.00;102117.65;109491;1244;59613;-71
2024/01/24 07:12:45;;;;;;;96.00;48.30;;;;;;;-2.37;100.00;102119.24;109507;1244;74688;-70
2024/01/24 07:15:16;;;;;;;95.90;49.70;;;;;;;-2.26;100.00;102118.08;109489;1245;69951;-70
2024/01/24 07:17:45;;;;;;;95.70;50.20;;;;;;;-2.23;100.00;102114.67;109227;1247;68626;-71
2024/01/24 07:20:16;;;;;;;99.90;53.00;;;;;;;-2.19;100.00;102116.39;109334;1244;73855;-70
2024/01/24 07:22:44;;;;;;;96.70;50.80;;;;;;;-2.04;100.00;102112.33;109278;1246;62600;-71
2024/01/24 07:25:13;;;;;;;100.70;52.90;;;;;;;-1.91;100.00;102108.42;109348;1245;60616;-71
2024/01/24 07:27:44;;;;;;;94.60;50.10;;;;;;;-1.79;100.00;102116.12;109330;1245;72239;-70
2024/01/24 07:30:15;;;;;;;103.70;52.10;;;;;;;-1.66;100.00;102112.73;109365;1246;71102;-70
2024/01/24 07:32:44;;;;;;;101.10;52.00;;;;;;;-1.53;100.00;102112.21;109202;1245;68438;-71
2024/01/24 07:35:13;;;;;;;104.50;55.70;;;;;;;-1.42;100.00;102110.85;109378;1245;71899;-71
2024/01/24 07:37:44;;;;;;;99.40;54.30;;;;;;;-1.31;100.00;102103.33;109481;1245;60387;-70
2024/01/24 07:40:18;;;;;;;101.20;53.40;;;;;;;-1.23;100.00;102095.27;109482;1244;59976;-70
2024/01/24 07:42:47;;;;;;;104.50;53.80;;;;;;;-1.08;100.00;102104.99;109439;1244;74995;-71
2024/01/24 07:45:18;;;;;;;95.40;52.90;;;;;;;-1.04;100.00;102104.48;109317;1242;72664;-70
2024/01/24 07:47:48;;;;;;;97.50;51.80;;;;;;;-0.80;100.00;102107.15;109437;1245;68203;-73
2024/01/24 07:50:17;;;;;;;99.90;54.50;;;;;;;-0.67;100.00;102105.90;109402;1246;72609;-71
2024/01/24 07:52:46;;;;;;;111.30;57.20;;;;;;;-0.61;100.00;102101.95;109412;1245;60533;-71
2024/01/24 07:55:15;;;;;;;106.20;53.20;;;;;;;-0.46;100.00;102097.27;109330;1245;58937;-70
2024/01/24 07:57:52;;;;;;;107.80;54.90;;;;;;;-0.42;100.00;102089.38;109474;1245;72271;-71
2024/01/24 08:00:21;;;;;;;101.80;54.10;;;;;;;-0.35;100.00;102085.05;109246;1245;71344;-70
2024/01/24 08:02:50;;;;;;;109.40;57.90;;;;;;;-0.22;100.00;102081.39;109361;1245;69106;-69
2024/01/24 08:05:22;;;;;;;105.60;58.30;;;;;;;-0.37;100.00;102074.27;109347;1243;74309;-71
2024/01/24 08:07:51;;;;;;;103.10;57.40;;;;;;;-0.35;100.00;102078.55;109150;1248;60680;-70
2024/01/24 08:10:20;;;;;;;104.50;56.60;;;;;;;-0.15;100.00;102071.59;109371;1244;60071;-69
2024/01/24 08:12:50;;;;;;;101.90;54.90;;;;;;;0.05;100.00;102078.98;109335;1245;74699;-69
2024/01/24 08:15:20;;;;;;;94.50;53.30;;;;;;;0.28;100.00;102084.81;109348;1242;72769;-71
2024/01/24 08:17:49;;;;;;;100.60;52.80;;;;;;;0.49;100.00;102087.56;109368;1244;69081;-72
2024/01/24 08:20:19;;;;;;;94.80;50.80;;;;;;;0.46;100.00;102084.66;109226;1244;71786;-72
2024/01/24 08:22:49;;;;;;;97.30;52.30;;;;;;;0.45;100.00;102082.79;109271;1245;61380;-73
2024/01/24 08:25:18;;;;;;;96.30;49.40;;;;;;;0.60;100.00;102078.20;109237;1246;60723;-71
2024/01/24 08:27:47;;;;;;;92.20;47.50;;;;;;;0.80;100.00;102075.95;109329;1244;74007;-72
2024/01/24 08:30:15;;;;;;;92.60;50.20;;;;;;;0.97;100.00;102074.73;109334;1244;71844;-72
2024/01/24 08:32:44;;;;;;;89.90;51.00;;;;;;;1.15;100.00;102071.46;109233;1244;71036;-72
2024/01/24 08:35:14;;;;;;;87.80;49.70;;;;;;;1.28;100.00;102068.02;109289;1244;73700;-71
2024/01/24 08:37:43;;;;;;;84.80;48.70;;;;;;;1.47;100.00;102063.33;109297;1245;60883;-70
2024/01/24 08:40:12;;;;;;;91.00;49.30;;;;;;;1.69;100.00;102063.55;109091;1244;58927;-71
2024/01/24 08:42:43;;;;;;;89.30;49.50;;;;;;;1.88;100.00;102055.73;109124;1242;71722;-79
2024/01/24 08:45:12;;;;;;;87.40;47.20;;;;;;;1.99;100.00;102046.97;109280;1245;72084;-77
2024/01/24 08:47:41;;;;;;;88.30;49.70;;;;;;;1.92;100.00;102044.66;109160;1244;71653;-67
2024/01/24 08:50:10;;;;;;;89.00;48.30;;;;;;;1.97;100.00;102039.09;109211;1244;74514;-77
2024/01/24 08:52:39;;;;;;;86.40;48.80;;;;;;;2.15;100.00;102038.30;109236;1245;59320;-70
2024/01/24 08:55:08;;;;;;;84.30;47.60;;;;;;;2.17;100.00;102034.30;109313;1244;59372;-73
2024/01/24 08:57:37;;;;;;;86.40;47.90;;;;;;;2.31;100.00;102023.94;109164;1247;71627;-71
2024/01/24 09:00:08;;;;;;;89.10;48.70;;;;;;;2.33;100.00;102010.82;109392;1243;69458;-71
2024/01/24 09:02:37;;;;;;;85.60;45.90;;;;;;;2.47;100.00;102017.80;109371;1244;68646;-71
2024/01/24 09:05:08;;;;;;;77.90;42.60;;;;;;;2.66;100.00;102015.56;109367;1244;71198;-70
2024/01/24 09:07:37;;;;;;;79.10;46.40;;;;;;;2.74;100.00;102008.36;109331;1244;59478;-70
2024/01/24 09:10:08;;;;;;;81.40;47.60;;;;;;;2.74;100.00;101997.52;109305;1243;61098;-70
2024/01/24 09:12:38;;;;;;;78.70;46.10;;;;;;;2.67;100.00;101989.05;109303;1244;74165;-71
2024/01/24 09:15:07;;;;;;;85.20;49.30;;;;;;;2.72;100.00;101987.58;109144;1244;71793;-76
2024/01/24 09:17:36;;;;;;;83.20;49.60;;;;;;;2.82;100.00;101980.15;109315;1244;71173;-78
2024/01/24 09:20:08;;;;;;;81.00;49.20;;;;;;;2.84;100.00;101971.69;109335;1244;72470;-72
2024/01/24 09:22:37;;;;;;;88.00;49.60;;;;;;;2.77;100.00;101960.45;109157;1244;59915;-69
2024/01/24 09:25:07;;;;;;;91.10;52.60;;;;;;;2.96;100.00;101958.52;109365;1244;61065;-71
2024/01/24 09:27:40;;;;;;;92.90;54.20;;;;;;;2.93;100.00;101950.34;109291;1242;74976;-71
2024/01/24 09:30:09;;;;;;;92.00;53.00;;;;;;;3.18;100.00;101945.67;109284;1243;70787;-72
2024/01/24 09:32:38;;;;;;;95.10;55.00;;;;;;;3.34;100.00;101931.88;109310;1245;70172;-69
2024/01/24 09:35:08;;;;;;;95.10;52.90;;;;;;;3.47;100.00;101918.15;109339;1244;73330;-70
2024/01/24 09:37:37;;;;;;;97.30;53.50;;;;;;;3.47;100.00;101911.44;109172;1244;58553;-70
2024/01/24 09:40:08;;;;;;;88.00;50.20;;;;;;;3.54;100.00;101908.01;109085;1243;59110;-70
2024/01/24 09:42:43;;;;;;;84.90;51.20;;;;;;;3.63;100.00;101893.81;109214;1244;74232;-70
2024/01/24 09:45:18;;;;;;;82.50;47.70;;;;;;;3.58;100.00;101882.93;109275;1244;61978;-71
2024/01/24 09:47:49;;;;;;;87.50;51.00;;;;;;;3.73;100.00;101862.56;109121;1244;67137;-70
2024/01/24 09:50:19;;;;;;;91.10;51.10;;;;;;;3.69;100.00;101871.27;109231;1243;72492;-71
2024/01/24 09:52:48;;;;;;;92.00;50.50;;;;;;;3.61;100.00;101862.19;109178;1244;60295;-71
2024/01/24 09:55:20;;;;;;;88.40;52.30;;;;;;;3.65;100.00;101853.45;109353;1243;60058;-71
2024/01/24 09:57:50;;;;;;;92.50;51.40;;;;;;;3.63;100.00;101845.93;109206;1244;72836;-70
2024/01/24 10:00:19;;;;;;;91.40;52.30;;;;;;;3.75;100.00;101834.23;109164;1244;71744;-70
2024/01/24 10:02:48;;;;;;;83.30;50.20;;;;;;;3.92;100.00;101829.50;109334;1244;70247;-71
2024/01/24 10:05:20;;;;;;;88.20;54.30;;;;;;;3.97;100.00;101825.73;109267;1243;72332;-71
2024/01/24 10:07:50;;;;;;;87.50;49.50;;;;;;;3.94;100.00;101815.65;109234;1244;62122;-71
2024/01/24 10:10:19;;;;;;;86.50;49.20;;;;;;;4.20;100.00;101812.69;108976;1247;58364;-72
2024/01/24 10:12:48;;;;;;;80.60;48.20;;;;;;;4.28;100.00;101810.90;109094;1245;63079;-71
2024/01/24 10:15:17;;;;;;;79.40;47.20;;;;;;;4.29;100.00;101799.50;109303;1243;62202;-71
2024/01/24 10:17:46;;;;;;;84.70;47.30;;;;;;;4.43;100.00;101796.16;109341;1244;59336;-71
2024/01/24 10:20:15;;;;;;;78.00;46.60;;;;;;;4.55;100.00;101790.79;109520;1244;64357;-70
2024/01/24 10:22:45;;;;;;;78.60;45.70;;;;;;;4.68;100.00;101786.27;109349;1244;59795;-70
2024/01/24 10:25:16;;;;;;;83.30;47.00;;;;;;;4.76;100.00;101780.65;109269;1243;61772;-72
2024/01/24 10:27:45;;;;;;;76.70;46.50;;;;;;;4.90;100.00;101768.14;109228;1242;64369;-71
2024/01/24 10:30:15;;;;;;;81.00;45.50;;;;;;;4.96;100.00;101761.91;109360;1243;61597;-72
2024/01/24 10:32:48;;;;;;;74.40;45.00;;;;;;;5.10;100.00;101756.96;109277;1243;68841;-71
2024/01/24 10:35:18;;;;;;;73.20;44.60;;;;;;;5.20;100.00;101759.02;109286;1243;72546;-71
2024/01/24 10:37:47;;;;;;;78.20;43.20;;;;;;;5.18;100.00;101754.27;109396;1243;58402;-73
2024/01/24 10:40:17;;;;;;;72.50;41.90;;;;;;;5.33;100.00;101746.50;109235;1244;57856;-69
2024/01/24 10:42:53;;;;;;;64.80;38.20;;;;;;;5.62;100.00;101741.89;109520;1244;63835;-71
2024/01/24 10:45:25;;;;;;;64.70;36.30;;;;;;;5.98;100.00;101736.64;109363;1242;61737;-70
2024/01/24 10:47:55;;;;;;;54.80;34.90;;;;;;;6.30;100.00;101734.73;109206;1243;70587;-69
2024/01/24 10:50:25;;;;;;;55.70;33.70;;;;;;;6.45;100.00;101725.34;109202;1244;63425;-70
2024/01/24 10:52:55;;;;;;;57.30;34.70;;;;;;;6.49;100.00;101724.65;109171;1244;59477;-69
2024/01/24 10:55:24;;;;;;;48.00;30.40;;;;;;;6.53;100.00;101713.09;109275;1242;61562;-70
2024/01/24 10:57:54;;;;;;;54.70;33.90;;;;;;;6.94;100.00;101704.51;109364;1243;64150;-72
2024/01/24 11:00:25;;;;;;;54.80;34.70;;;;;;;7.28;100.00;101700.27;109399;1244;72045;-71
2024/01/24 11:02:55;;;;;;;63.10;37.10;;;;;;;7.15;100.00;101692.54;109355;1243;59359;-71
2024/01/24 11:05:39;;;;;;;54.70;35.50;;;;;;;7.31;100.00;101682.52;109289;1244;74009;-71